Time;durP1;ratioP1;P1;durP2;ratioP2;P2;SDS_P1;SDS_P2;PMS_P1;PMS_P2;Temp;Humidity;BMP_temperature;BMP_pressure;BME280_temperature;BME280_humidity;BME280_pressure;Samples;Min_cycle;Max_cycle;Signal;HPM_P1;HPM_P2
2023/01/20 00:01:49;;;;;;;2.72;1.67;;;0.50;99.90;;;;;;5048070;28;20079;-87
2023/01/20 00:04:27;;;;;;;3.70;1.75;;;0.50;99.90;;;;;;5043180;28;20051;-87
2023/01/20 00:06:56;;;;;;;2.65;1.50;;;0.50;99.90;;;;;;5052468;28;20461;-87
2023/01/20 00:09:36;;;;;;;3.07;1.53;;;0.40;99.90;;;;;;5035121;28;20044;-87
2023/01/20 00:12:02;;;;;;;5.60;1.98;;;0.40;99.90;;;;;;5035865;28;20041;-87
2023/01/20 00:14:38;;;;;;;3.17;1.87;;;0.40;99.90;;;;;;5030016;28;20170;-87
2023/01/20 00:17:04;;;;;;;5.70;1.90;;;0.40;99.90;;;;;;5038731;28;20049;-87
2023/01/20 00:19:29;;;;;;;3.97;1.70;;;0.40;99.90;;;;;;5047998;28;20169;-87
2023/01/20 00:22:03;;;;;;;5.47;1.90;;;0.40;99.90;;;;;;5035699;28;20086;-87
2023/01/20 00:24:32;;;;;;;3.53;1.85;;;0.40;99.90;;;;;;5034593;28;20083;-87
2023/01/20 00:27:03;;;;;;;4.70;2.07;;;0.40;99.90;;;;;;5044795;28;20045;-87
2023/01/20 00:29:31;;;;;;;5.50;2.63;;;0.40;99.90;;;;;;5033250;28;20048;-86
2023/01/20 00:32:03;;;;;;;4.32;2.17;;;0.20;99.90;;;;;;5037867;28;20055;-87
2023/01/20 00:34:28;;;;;;;4.72;2.55;;;0.30;99.90;;;;;;5046215;28;20119;-88
2023/01/20 00:36:54;;;;;;;5.17;3.00;;;0.30;99.90;;;;;;5044960;28;20616;-87
2023/01/20 00:39:26;;;;;;;5.20;2.73;;;0.30;99.90;;;;;;5042205;28;20150;-87
2023/01/20 00:42:21;;;;;;;6.05;3.42;;;0.30;99.90;;;;;;5057220;28;20039;-87
2023/01/20 00:44:48;;;;;;;5.15;2.55;;;0.30;99.90;;;;;;5043690;28;20046;-88
2023/01/20 00:47:19;;;;;;;5.38;2.80;;;0.30;99.90;;;;;;5037298;28;20036;-86
2023/01/20 00:49:46;;;;;;;6.95;3.22;;;0.30;99.90;;;;;;5035255;28;20128;-87
2023/01/20 00:52:19;;;;;;;4.97;3.00;;;0.30;99.90;;;;;;5035594;28;20040;-86
2023/01/20 00:54:45;;;;;;;8.77;4.25;;;0.30;99.90;;;;;;5028738;28;20041;-87
2023/01/20 00:57:14;;;;;;;9.27;3.77;;;0.40;99.90;;;;;;5042666;28;20161;-87
2023/01/20 00:59:42;;;;;;;9.48;3.88;;;0.30;99.90;;;;;;5041695;28;20040;-87
2023/01/20 01:02:10;;;;;;;7.28;3.65;;;0.30;99.90;;;;;;5048493;28;20515;-88
2023/01/20 01:04:36;;;;;;;6.38;3.55;;;0.30;99.90;;;;;;5038188;28;20061;-86
2023/01/20 01:07:04;;;;;;;8.13;4.00;;;0.20;99.90;;;;;;5027183;28;20124;-87
2023/01/20 01:09:51;;;;;;;8.52;4.32;;;0.30;99.90;;;;;;5033235;28;20072;-87
2023/01/20 01:12:23;;;;;;;7.20;3.78;;;0.40;99.90;;;;;;5056105;28;20436;-87
2023/01/20 01:14:55;;;;;;;7.90;4.35;;;0.20;99.90;;;;;;5024170;28;20576;-86
2023/01/20 01:17:22;;;;;;;8.63;3.65;;;0.20;99.90;;;;;;5026866;28;20041;-87
2023/01/20 01:19:54;;;;;;;6.97;3.72;;;0.20;99.90;;;;;;5028510;28;20264;-87
2023/01/20 01:22:21;;;;;;;7.03;3.80;;;0.30;99.90;;;;;;5031044;28;20048;-87
2023/01/20 01:24:47;;;;;;;6.55;3.65;;;0.30;99.90;;;;;;5048753;28;20044;-87
2023/01/20 01:27:15;;;;;;;7.53;3.92;;;0.30;99.90;;;;;;5034742;28;20120;-88
2023/01/20 01:29:41;;;;;;;6.93;3.87;;;0.30;99.90;;;;;;5027658;28;20391;-88
2023/01/20 01:32:07;;;;;;;7.77;3.43;;;0.30;99.90;;;;;;5046791;28;20113;-86
2023/01/20 01:34:36;;;;;;;8.45;3.97;;;0.30;99.90;;;;;;5029562;28;20563;-88
2023/01/20 01:37:40;;;;;;;7.82;3.90;;;0.30;99.90;;;;;;5050289;28;20037;-88
2023/01/20 01:40:12;;;;;;;9.57;4.07;;;0.30;99.90;;;;;;5041372;28;20071;-90
2023/01/20 01:42:59;;;;;;;8.20;3.42;;;0.20;99.90;;;;;;5032395;28;20161;-89
2023/01/20 01:45:29;;;;;;;7.50;3.67;;;0.30;99.90;;;;;;5050317;28;20531;-87
2023/01/20 01:48:03;;;;;;;6.93;3.75;;;0.30;99.90;;;;;;5034865;28;20123;-86
2023/01/20 01:50:40;;;;;;;8.32;4.20;;;0.30;99.90;;;;;;5041596;28;20114;-87
2023/01/20 01:53:07;;;;;;;8.60;3.92;;;0.20;99.90;;;;;;5055485;28;20115;-89
2023/01/20 01:55:38;;;;;;;8.25;3.70;;;0.30;99.90;;;;;;5027755;28;20060;-87
2023/01/20 01:58:09;;;;;;;7.90;3.58;;;0.20;99.90;;;;;;5045822;28;20025;-87
2023/01/20 02:00:37;;;;;;;8.23;3.58;;;0.20;99.90;;;;;;5050738;28;20524;-87
2023/01/20 02:03:03;;;;;;;6.97;3.67;;;0.20;99.90;;;;;;5048118;28;20036;-87
2023/01/20 02:05:29;;;;;;;10.02;3.78;;;0.20;99.90;;;;;;5044639;28;20060;-86
2023/01/20 02:08:01;;;;;;;7.43;3.83;;;0.20;99.90;;;;;;5037120;28;20048;-87
2023/01/20 02:10:36;;;;;;;8.50;3.97;;;0.20;99.90;;;;;;5036058;28;20040;-86
2023/01/20 02:13:05;;;;;;;6.90;3.03;;;0.20;99.90;;;;;;5043031;28;20197;-87
2023/01/20 02:15:54;;;;;;;6.35;3.17;;;0.20;99.90;;;;;;5034524;28;20584;-88
2023/01/20 02:18:59;;;;;;;8.50;3.75;;;0.20;99.90;;;;;;5032403;28;20064;-86
2023/01/20 02:21:25;;;;;;;6.63;3.30;;;0.20;99.90;;;;;;5056015;28;20052;-87
2023/01/20 02:24:21;;;;;;;6.68;3.50;;;0.20;99.90;;;;;;5019835;28;20036;-86
2023/01/20 02:27:09;;;;;;;6.00;3.30;;;0.20;99.90;;;;;;5028555;28;20045;-86
2023/01/20 02:29:53;;;;;;;10.40;4.00;;;0.20;99.90;;;;;;5044385;28;20047;-88
2023/01/20 02:32:39;;;;;;;8.80;4.13;;;0.20;99.90;;;;;;5031198;28;20045;-87
2023/01/20 02:35:27;;;;;;;9.93;3.40;;;0.20;99.90;;;;;;5041119;28;20122;-87
2023/01/20 02:38:05;;;;;;;;;;;0.20;99.90;;;;;;5046558;28;20116;-87
2023/01/20 02:40:46;;;;;;;6.70;3.58;;;0.20;99.90;;;;;;5047898;28;19967;-87
2023/01/20 02:43:34;;;;;;;8.77;4.25;;;0.20;99.90;;;;;;5041642;28;20106;-87
2023/01/20 02:46:08;;;;;;;;;;;0.20;99.90;;;;;;5026502;28;20040;-87
2023/01/20 02:49:08;;;;;;;10.20;4.35;;;0.20;99.90;;;;;;5035709;28;20372;-87
2023/01/20 02:51:41;;;;;;;9.85;4.65;;;0.30;99.90;;;;;;5036303;28;20041;-86
2023/01/20 02:54:11;;;;;;;9.50;3.85;;;0.20;99.90;;;;;;5053125;28;20048;-88
2023/01/20 02:56:40;;;;;;;8.95;4.82;;;0.20;99.90;;;;;;5059612;28;20040;-88
2023/01/20 02:59:14;;;;;;;9.80;4.20;;;0.30;99.90;;;;;;5044304;28;20037;-87
2023/01/20 03:01:53;;;;;;;12.10;5.25;;;0.20;99.90;;;;;;5052391;28;20093;-88
2023/01/20 03:04:25;;;;;;;9.30;4.75;;;0.20;99.90;;;;;;5045287;28;20029;-88
2023/01/20 03:06:53;;;;;;;8.48;4.70;;;0.20;99.90;;;;;;5052218;28;20033;-87
2023/01/20 03:09:24;;;;;;;11.43;4.80;;;0.30;99.90;;;;;;5049905;28;20044;-87
2023/01/20 03:12:13;;;;;;;12.35;5.45;;;0.30;99.90;;;;;;5033216;28;20068;-86
2023/01/20 03:14:41;;;;;;;9.27;5.22;;;0.30;99.90;;;;;;5045239;28;20049;-86
2023/01/20 03:17:10;;;;;;;11.32;5.45;;;0.30;99.90;;;;;;5048708;28;20144;-88
2023/01/20 03:19:36;;;;;;;10.23;4.97;;;0.30;99.90;;;;;;5064285;28;20035;-87
2023/01/20 03:22:04;;;;;;;12.90;6.38;;;0.30;99.90;;;;;;5044529;28;20094;-87
2023/01/20 03:24:36;;;;;;;11.20;6.00;;;0.30;99.90;;;;;;5057575;28;20244;-91
2023/01/20 03:27:03;;;;;;;15.73;6.07;;;0.30;99.90;;;;;;5033567;28;20373;-91
2023/01/20 03:33:14;;;;;;;10.57;5.63;;;0.30;99.90;;;;;;5055596;28;19916;-91
2023/01/20 03:36:02;;;;;;;11.55;5.57;;;0.30;99.90;;;;;;5039530;28;20049;-91
2023/01/20 03:38:30;;;;;;;11.65;5.22;;;0.30;99.90;;;;;;5052654;28;20472;-91
2023/01/20 03:41:14;;;;;;;14.45;5.95;;;0.20;99.90;;;;;;5059630;28;20040;-92
2023/01/20 03:43:48;;;;;;;12.02;6.20;;;0.20;99.90;;;;;;5048681;28;20044;-91
2023/01/20 03:46:25;;;;;;;12.55;6.30;;;0.20;99.90;;;;;;5055467;28;20051;-90
2023/01/20 03:49:09;;;;;;;11.60;5.85;;;0.20;99.90;;;;;;5072743;28;20032;-93
2023/01/20 03:51:58;;;;;;;12.30;5.93;;;0.20;99.90;;;;;;5083742;28;20052;-90
2023/01/20 03:54:30;;;;;;;15.15;6.50;;;0.20;99.90;;;;;;5063895;28;20085;-94
2023/01/20 03:57:07;;;;;;;13.32;6.68;;;0.20;99.90;;;;;;5064577;28;20063;-94
2023/01/20 03:59:38;;;;;;;11.90;6.60;;;0.10;99.90;;;;;;5076709;28;20070;-94
2023/01/20 04:02:11;;;;;;;13.00;7.03;;;0.10;99.90;;;;;;5064602;28;20036;-93
2023/01/20 04:05:01;;;;;;;13.40;6.47;;;0.10;99.90;;;;;;5073205;28;20084;-93
2023/01/20 04:07:30;;;;;;;13.50;6.90;;;0.10;99.90;;;;;;5079263;28;20079;-93
2023/01/20 04:10:03;;;;;;;15.20;7.63;;;0.10;99.90;;;;;;5054275;28;20097;-93
2023/01/20 04:12:29;;;;;;;16.35;7.15;;;0.10;99.90;;;;;;5056829;28;20040;-96
2023/01/20 04:14:58;;;;;;;18.92;6.65;;;0.10;99.90;;;;;;5056256;28;20029;-92
2023/01/20 04:17:35;;;;;;;17.83;7.25;;;0.20;99.90;;;;;;5073129;28;20049;-92
2023/01/20 04:20:15;;;;;;;15.13;7.57;;;0.20;99.90;;;;;;5073469;28;20033;-93
2023/01/20 04:23:04;;;;;;;16.00;7.68;;;0.10;99.90;;;;;;5051403;28;20060;-90
2023/01/20 04:25:33;;;;;;;15.80;6.53;;;0.20;99.90;;;;;;5033100;28;20059;-90
2023/01/20 04:28:22;;;;;;;15.30;6.72;;;0.20;99.90;;;;;;5045441;28;20120;-90
2023/01/20 04:30:50;;;;;;;17.52;8.25;;;0.30;99.90;;;;;;5065375;28;20103;-91
2023/01/20 04:33:16;;;;;;;15.35;7.03;;;0.30;99.90;;;;;;5041540;28;20119;-90
2023/01/20 04:35:44;;;;;;;15.33;7.73;;;0.40;99.90;;;;;;5061882;28;20556;-90
2023/01/20 04:38:15;;;;;;;19.55;8.07;;;0.40;99.90;;;;;;5037247;28;20114;-90
2023/01/20 04:40:52;;;;;;;15.88;6.95;;;0.40;99.90;;;;;;5029617;28;20044;-90
2023/01/20 04:43:24;;;;;;;15.30;7.18;;;0.40;99.90;;;;;;5055727;28;20037;-90
2023/01/20 04:45:53;;;;;;;19.65;7.38;;;0.50;99.90;;;;;;5034295;28;20585;-92
2023/01/20 04:48:21;;;;;;;16.63;6.65;;;0.40;99.90;;;;;;5034144;28;20037;-90
2023/01/20 04:51:05;;;;;;;19.07;7.03;;;0.50;99.90;;;;;;5032170;28;20086;-89
2023/01/20 04:53:31;;;;;;;19.73;7.68;;;0.50;99.90;;;;;;5054603;28;20049;-90
2023/01/20 04:56:09;;;;;;;16.15;7.00;;;0.50;99.90;;;;;;5049440;28;20076;-90
2023/01/20 04:58:58;;;;;;;17.88;7.45;;;0.50;99.90;;;;;;5049222;28;20048;-90
2023/01/20 05:01:32;;;;;;;16.98;7.35;;;0.50;99.90;;;;;;5033754;28;20051;-90
2023/01/20 05:04:03;;;;;;;17.92;7.68;;;0.60;99.90;;;;;;5034086;28;20079;-91
2023/01/20 05:06:31;;;;;;;17.35;7.32;;;0.50;99.90;;;;;;5031812;28;20528;-90
2023/01/20 05:09:09;;;;;;;14.07;7.22;;;0.50;99.90;;;;;;5036367;28;20050;-90
2023/01/20 05:11:35;;;;;;;19.63;7.13;;;0.50;99.90;;;;;;5038860;28;20078;-91
2023/01/20 05:14:13;;;;;;;21.13;7.40;;;0.50;99.90;;;;;;5050870;28;20041;-91
2023/01/20 05:16:41;;;;;;;19.38;6.75;;;0.50;99.90;;;;;;5025620;28;20615;-90
2023/01/20 05:19:12;;;;;;;18.50;7.45;;;0.50;99.90;;;;;;5037253;28;20037;-90
2023/01/20 05:21:38;;;;;;;23.25;8.10;;;0.50;99.90;;;;;;5055212;28;20041;-91
2023/01/20 05:24:04;;;;;;;15.70;7.07;;;0.60;99.90;;;;;;5052001;28;20520;-90
2023/01/20 05:26:44;;;;;;;20.17;7.05;;;0.60;99.90;;;;;;5034422;28;20072;-90
2023/01/20 05:29:31;;;;;;;21.05;6.90;;;0.60;99.90;;;;;;5047174;28;20051;-90
2023/01/20 05:32:17;;;;;;;18.08;6.97;;;0.50;99.90;;;;;;5031944;28;20052;-90
2023/01/20 05:34:46;;;;;;;22.10;7.82;;;0.60;99.90;;;;;;5039126;28;20150;-90
2023/01/20 05:37:32;;;;;;;19.98;7.07;;;0.60;99.90;;;;;;5060680;28;20033;-90
2023/01/20 05:40:00;;;;;;;17.02;6.63;;;0.60;99.90;;;;;;5028365;28;20037;-91
2023/01/20 05:42:28;;;;;;;21.50;7.22;;;0.60;99.90;;;;;;5043135;28;20041;-90
2023/01/20 05:44:54;;;;;;;20.63;7.75;;;0.60;99.90;;;;;;5029808;28;20108;-90
2023/01/20 05:47:20;;;;;;;19.80;7.80;;;0.60;99.90;;;;;;5028068;28;20100;-90
2023/01/20 05:49:52;;;;;;;14.97;7.23;;;0.60;99.90;;;;;;5058870;28;20041;-90
2023/01/20 05:52:29;;;;;;;22.13;7.00;;;0.60;99.90;;;;;;5053008;28;20068;-91
2023/01/20 05:55:05;;;;;;;16.90;7.80;;;0.60;99.90;;;;;;5031911;28;20040;-90
2023/01/20 05:57:39;;;;;;;17.93;7.70;;;0.60;99.90;;;;;;5044290;28;20115;-90
2023/01/20 06:00:25;;;;;;;17.13;6.68;;;0.60;99.90;;;;;;5052673;28;20041;-90
2023/01/20 06:03:11;;;;;;;17.42;7.28;;;0.60;99.90;;;;;;5036130;28;20517;-91
2023/01/20 06:05:48;;;;;;;17.25;7.38;;;0.60;99.90;;;;;;5025883;28;20421;-90
2023/01/20 06:08:39;;;;;;;18.27;7.20;;;0.60;99.90;;;;;;5032702;28;20120;-90
2023/01/20 06:11:05;;;;;;;20.35;8.15;;;0.60;99.90;;;;;;5049806;28;20463;-90
2023/01/20 06:13:39;;;;;;;17.43;7.20;;;0.70;99.90;;;;;;5050667;28;20045;-92
2023/01/20 06:16:05;;;;;;;19.20;7.95;;;0.60;99.90;;;;;;5034629;28;20044;-91
2023/01/20 06:18:36;;;;;;;22.00;8.98;;;0.60;99.90;;;;;;5034772;28;20072;-91
2023/01/20 06:21:05;;;;;;;19.45;8.57;;;0.60;99.90;;;;;;5056468;28;20106;-90
2023/01/20 06:23:31;;;;;;;21.60;9.18;;;0.60;99.90;;;;;;5029398;28;20037;-90
2023/01/20 06:26:13;;;;;;;22.80;8.95;;;0.60;99.90;;;;;;5035902;28;20501;-91
2023/01/20 06:28:41;;;;;;;21.77;8.45;;;0.60;99.90;;;;;;5049654;28;20052;-90
2023/01/20 06:31:13;;;;;;;19.75;8.55;;;0.60;99.90;;;;;;5034512;28;20084;-90
2023/01/20 06:33:39;;;;;;;20.25;8.32;;;0.60;99.90;;;;;;5032622;28;20075;-90
2023/01/20 06:36:12;;;;;;;21.67;9.02;;;0.60;99.90;;;;;;5053082;28;20047;-90
2023/01/20 06:38:49;;;;;;;22.63;9.32;;;0.60;99.90;;;;;;5040964;28;20044;-90
2023/01/20 06:41:19;;;;;;;20.98;9.10;;;0.60;99.90;;;;;;5043530;28;20032;-91
2023/01/20 06:43:53;;;;;;;21.80;9.60;;;0.60;99.90;;;;;;5037040;28;20041;-91
2023/01/20 06:46:21;;;;;;;23.95;11.50;;;0.70;99.90;;;;;;5044945;28;20045;-90
2023/01/20 06:48:48;;;;;;;23.83;10.17;;;0.60;99.90;;;;;;5034151;28;20112;-89
2023/01/20 06:51:22;;;;;;;;;;;0.60;99.90;;;;;;5036111;28;20183;-90
2023/01/20 06:53:53;;;;;;;25.98;10.52;;;0.60;99.90;;;;;;5052922;28;19928;-90
2023/01/20 06:58:46;;;;;;;24.75;11.38;;;0.60;99.90;;;;;;5043165;28;20049;-66
2023/01/20 07:01:25;;;;;;;27.10;11.60;;;0.60;99.90;;;;;;5046172;28;20453;-66
2023/01/20 07:03:51;;;;;;;27.08;10.38;;;0.70;99.90;;;;;;5048588;28;20041;-66
2023/01/20 07:06:31;;;;;;;27.80;11.03;;;0.70;99.90;;;;;;5049380;28;20581;-66
2023/01/20 07:08:57;;;;;;;25.27;10.20;;;0.70;99.90;;;;;;5048805;28;20040;-66
2023/01/20 07:11:23;;;;;;;25.17;11.52;;;0.70;99.90;;;;;;5044560;28;20458;-66
2023/01/20 07:13:49;;;;;;;34.80;11.53;;;0.70;99.90;;;;;;5048535;28;20291;-66
2023/01/20 07:16:15;;;;;;;29.50;12.17;;;0.70;99.90;;;;;;5045160;28;20355;-66
2023/01/20 07:18:41;;;;;;;29.88;11.60;;;0.80;99.90;;;;;;5047209;28;20235;-66
2023/01/20 07:21:10;;;;;;;28.55;11.07;;;0.70;99.90;;;;;;5048505;28;20226;-66
2023/01/20 07:23:36;;;;;;;34.67;14.05;;;0.80;99.90;;;;;;5058686;28;20059;-66
2023/01/20 07:26:07;;;;;;;29.13;11.80;;;0.80;99.90;;;;;;5048247;28;20037;-67
2023/01/20 07:28:34;;;;;;;27.20;10.90;;;0.80;99.90;;;;;;5048793;28;20212;-67
2023/01/20 07:31:07;;;;;;;31.95;13.02;;;0.80;99.90;;;;;;5043076;28;20074;-67
2023/01/20 07:33:33;;;;;;;31.55;12.35;;;0.80;99.90;;;;;;5048046;28;20044;-67
2023/01/20 07:36:00;;;;;;;32.57;12.07;;;0.80;99.90;;;;;;5047665;28;20120;-67
2023/01/20 07:38:25;;;;;;;;;;;0.80;99.90;;;;;;5048652;28;20567;-66
2023/01/20 07:40:51;;;;;;;36.97;12.25;;;0.90;99.90;;;;;;5041337;28;20035;-67
2023/01/20 07:43:16;;;;;;;35.13;14.20;;;0.90;99.90;;;;;;5046951;28;20383;-67
2023/01/20 07:45:42;;;;;;;31.77;12.63;;;0.80;99.90;;;;;;5049018;28;20041;-66
2023/01/20 07:48:08;;;;;;;34.77;11.87;;;0.80;99.90;;;;;;5045705;28;20090;-66
2023/01/20 07:50:35;;;;;;;33.17;12.03;;;0.80;99.90;;;;;;5047302;28;20040;-67
2023/01/20 07:53:01;;;;;;;29.38;12.55;;;0.80;99.90;;;;;;5050184;28;20051;-67
2023/01/20 07:55:26;;;;;;;31.00;12.17;;;0.90;99.90;;;;;;5047678;28;20049;-67
2023/01/20 07:57:52;;;;;;;32.30;12.80;;;0.90;99.90;;;;;;5041504;28;20990;-67
2023/01/20 08:00:18;;;;;;;32.27;13.63;;;0.90;99.90;;;;;;5046559;28;20033;-67
2023/01/20 08:02:44;;;;;;;30.52;12.95;;;0.90;99.90;;;;;;5044878;28;20056;-66
2023/01/20 08:05:10;;;;;;;31.73;12.07;;;0.90;99.90;;;;;;5052882;28;20040;-66
2023/01/20 08:07:36;;;;;;;32.70;12.27;;;0.90;99.90;;;;;;5048163;28;20033;-67
2023/01/20 08:10:02;;;;;;;39.65;13.32;;;0.90;99.90;;;;;;5040061;28;20497;-67
2023/01/20 08:12:28;;;;;;;39.88;13.25;;;0.90;99.90;;;;;;5045324;28;20037;-66
2023/01/20 08:14:54;;;;;;;33.45;13.10;;;0.90;99.90;;;;;;5048906;28;20041;-67
2023/01/20 08:17:20;;;;;;;32.33;12.53;;;1.00;99.90;;;;;;5049306;28;20049;-66
2023/01/20 08:19:45;;;;;;;35.47;12.53;;;1.00;99.90;;;;;;5047599;28;20479;-67
2023/01/20 08:22:11;;;;;;;29.30;11.67;;;1.00;99.90;;;;;;5048734;28;20481;-67
2023/01/20 08:24:37;;;;;;;34.13;12.17;;;1.00;99.90;;;;;;5046388;28;20100;-66
2023/01/20 08:27:02;;;;;;;35.83;13.10;;;1.00;99.90;;;;;;5045306;28;20040;-67
2023/01/20 08:29:30;;;;;;;38.60;12.27;;;1.00;99.90;;;;;;5048607;28;20041;-67
2023/01/20 08:31:58;;;;;;;33.80;12.55;;;1.00;99.90;;;;;;5043204;28;20068;-67
2023/01/20 08:34:24;;;;;;;32.55;11.52;;;1.00;99.90;;;;;;5042386;28;20079;-66
2023/01/20 08:36:52;;;;;;;28.13;11.73;;;1.00;99.90;;;;;;5045363;28;20060;-67
2023/01/20 08:39:19;;;;;;;24.15;11.52;;;1.00;99.90;;;;;;5047811;28;20123;-67
2023/01/20 08:41:46;;;;;;;29.10;12.35;;;1.10;99.90;;;;;;5046226;28;20108;-67
2023/01/20 08:44:13;;;;;;;31.15;12.02;;;1.10;99.90;;;;;;5050530;28;20111;-66
2023/01/20 08:46:39;;;;;;;32.47;13.18;;;1.10;99.90;;;;;;5041791;28;20056;-67
2023/01/20 08:49:07;;;;;;;29.95;12.35;;;1.10;99.90;;;;;;5047668;28;20095;-67
2023/01/20 08:51:33;;;;;;;33.33;12.57;;;1.20;99.90;;;;;;5037493;28;20491;-66
2023/01/20 08:53:59;;;;;;;36.20;11.90;;;1.10;99.90;;;;;;5025343;28;20159;-67
2023/01/20 08:56:25;;;;;;;34.10;13.73;;;1.20;99.90;;;;;;5046316;28;20526;-67
2023/01/20 08:58:52;;;;;;;31.40;12.65;;;1.20;99.90;;;;;;5039034;28;20033;-67
2023/01/20 09:01:20;;;;;;;40.13;14.15;;;1.20;99.90;;;;;;5043855;28;20124;-67
2023/01/20 09:03:47;;;;;;;35.33;13.73;;;1.10;99.90;;;;;;5050486;28;20123;-66
2023/01/20 09:06:13;;;;;;;35.00;13.20;;;1.20;99.90;;;;;;5046833;28;20139;-67
2023/01/20 09:08:39;;;;;;;38.25;13.90;;;1.20;99.90;;;;;;5046079;28;20053;-67
2023/01/20 09:11:13;;;;;;;38.67;14.30;;;1.20;99.90;;;;;;5047002;28;20036;-66
2023/01/20 09:13:39;;;;;;;34.85;13.32;;;1.20;99.90;;;;;;5047346;28;20045;-67
2023/01/20 09:16:06;;;;;;;34.55;12.38;;;1.30;99.90;;;;;;5046601;28;20045;-67
2023/01/20 09:18:33;;;;;;;33.35;13.30;;;1.30;99.90;;;;;;5044190;28;20087;-66
2023/01/20 09:21:00;;;;;;;39.85;12.82;;;1.30;99.90;;;;;;5047290;28;20110;-66
2023/01/20 09:23:26;;;;;;;37.95;13.38;;;1.40;99.90;;;;;;5048274;28;20509;-67
2023/01/20 09:25:52;;;;;;;35.10;13.55;;;1.40;99.90;;;;;;5038982;28;20052;-67
2023/01/20 09:28:18;;;;;;;41.43;13.70;;;1.40;99.90;;;;;;5049286;28;20036;-67
2023/01/20 09:30:43;;;;;;;32.73;12.27;;;1.40;99.90;;;;;;5042723;28;20083;-66
2023/01/20 09:33:10;;;;;;;37.20;13.27;;;1.40;99.90;;;;;;5040342;28;20045;-66
2023/01/20 09:35:36;;;;;;;37.28;12.85;;;1.60;99.90;;;;;;5043516;28;20044;-67
2023/01/20 09:44:52;;;;;;;31.83;12.90;;;1.50;99.90;;;;;;5045724;28;20508;-65
2023/01/20 09:47:40;;;;;;;39.63;12.63;;;1.50;99.90;;;;;;5037977;28;20045;-66
2023/01/20 09:53:33;;;;;;;34.92;13.85;;;1.60;99.90;;;;;;5042181;28;20041;-66
2023/01/20 09:56:02;;;;;;;34.75;11.85;;;1.60;99.90;;;;;;5039149;28;20036;-66
2023/01/20 09:58:44;;;;;;;31.67;12.88;;;1.50;99.90;;;;;;5036888;28;20090;-66
2023/01/20 10:01:12;;;;;;;39.75;13.05;;;1.50;99.90;;;;;;5042577;28;20041;-66
2023/01/20 10:03:42;;;;;;;32.13;12.82;;;1.50;99.90;;;;;;5040793;28;20240;-66
2023/01/20 10:06:12;;;;;;;35.97;12.77;;;1.60;99.90;;;;;;5044161;28;20534;-66
2023/01/20 10:08:54;;;;;;;30.77;12.10;;;1.60;99.90;;;;;;5045972;28;20049;-66
2023/01/20 10:11:21;;;;;;;38.70;12.38;;;1.60;99.90;;;;;;5041711;28;20044;-66
2023/01/20 10:13:50;;;;;;;39.83;13.48;;;1.60;99.90;;;;;;5043949;28;20374;-66
2023/01/20 10:16:39;;;;;;;31.15;10.90;;;1.60;99.90;;;;;;5038358;28;20128;-65
2023/01/20 10:19:26;;;;;;;38.92;12.57;;;1.70;99.90;;;;;;5035229;28;20283;-65
2023/01/20 10:22:18;;;;;;;33.58;13.13;;;1.70;99.90;;;;;;5046394;28;20318;-66
2023/01/20 10:24:54;;;;;;;32.17;12.80;;;1.70;99.90;;;;;;5044173;28;20462;-66
2023/01/20 10:27:25;;;;;;;33.03;13.27;;;1.70;99.90;;;;;;5039119;28;20049;-65
2023/01/20 10:30:04;;;;;;;37.03;11.90;;;1.70;99.90;;;;;;5046618;28;20495;-65
2023/01/20 10:32:36;;;;;;;30.75;13.68;;;1.70;99.90;;;;;;5031053;28;20422;-66
2023/01/20 10:35:24;;;;;;;29.25;12.00;;;1.70;99.90;;;;;;5043947;28;20109;-66
2023/01/20 10:37:55;;;;;;;32.53;13.00;;;1.70;99.90;;;;;;5034221;28;20040;-66
2023/01/20 10:40:52;;;;;;;31.05;12.93;;;1.80;99.90;;;;;;5039854;28;20379;-69
2023/01/20 10:43:19;;;;;;;30.92;11.05;;;1.80;99.90;;;;;;5036702;28;20132;-69
2023/01/20 10:46:03;;;;;;;29.00;12.18;;;1.80;99.90;;;;;;5039285;28;20049;-66
2023/01/20 10:48:43;;;;;;;31.65;11.90;;;1.90;99.90;;;;;;5041830;28;20041;-66
2023/01/20 10:51:28;;;;;;;35.08;12.55;;;1.90;99.90;;;;;;5038553;28;20124;-67
2023/01/20 10:54:27;;;;;;;35.67;12.20;;;1.90;99.90;;;;;;5041282;28;20167;-67
2023/01/20 10:56:55;;;;;;;30.13;11.80;;;2.00;99.90;;;;;;5044002;28;20418;-66
2023/01/20 10:59:31;;;;;;;34.35;12.98;;;2.00;99.90;;;;;;5044052;28;20041;-66
2023/01/20 11:02:11;;;;;;;30.90;13.07;;;2.00;99.90;;;;;;5045382;28;20469;-67
2023/01/20 11:04:37;;;;;;;31.10;11.63;;;2.00;99.90;;;;;;5047318;28;20115;-66
2023/01/20 11:07:07;;;;;;;39.53;12.65;;;2.00;99.90;;;;;;5043243;28;20040;-66
2023/01/20 11:09:38;;;;;;;35.53;10.93;;;2.10;99.90;;;;;;5037141;28;20045;-66
2023/01/20 11:12:13;;;;;;;31.75;11.93;;;2.10;99.90;;;;;;5045034;28;20085;-66
2023/01/20 11:14:39;;;;;;;33.95;11.38;;;2.10;99.90;;;;;;5042862;28;20128;-67
2023/01/20 11:17:11;;;;;;;28.58;11.10;;;2.10;99.90;;;;;;5042848;28;20112;-66
2023/01/20 11:19:49;;;;;;;27.60;11.23;;;2.10;99.90;;;;;;5044521;28;20068;-67
2023/01/20 11:22:22;;;;;;;32.55;11.65;;;2.10;99.90;;;;;;5039301;28;20111;-67
2023/01/20 11:24:54;;;;;;;26.33;10.55;;;2.20;99.90;;;;;;5047423;28;20150;-67
2023/01/20 11:27:23;;;;;;;29.05;11.02;;;2.20;99.90;;;;;;5049009;28;20391;-67
2023/01/20 11:29:56;;;;;;;25.83;9.98;;;2.20;99.90;;;;;;5047720;28;20045;-66
2023/01/20 11:32:28;;;;;;;28.67;10.73;;;2.20;99.90;;;;;;5045659;28;20060;-67
2023/01/20 11:34:54;;;;;;;27.65;10.65;;;2.20;99.90;;;;;;5039695;28;20040;-66
2023/01/20 11:37:26;;;;;;;25.40;9.60;;;2.20;99.90;;;;;;5047932;28;20036;-66
2023/01/20 11:39:54;;;;;;;25.10;10.02;;;2.30;99.90;;;;;;5042127;28;20048;-66
2023/01/20 11:42:41;;;;;;;30.65;11.23;;;2.20;99.90;;;;;;5043055;28;20052;-67
2023/01/20 11:45:33;;;;;;;26.67;9.85;;;2.30;99.90;;;;;;5051610;28;20080;-66
2023/01/20 11:48:14;;;;;;;25.50;9.48;;;2.30;99.90;;;;;;5047207;28;20048;-66
2023/01/20 11:50:59;;;;;;;24.90;9.60;;;2.30;99.90;;;;;;5044780;28;20469;-67
2023/01/20 11:53:32;;;;;;;31.05;10.75;;;2.30;99.90;;;;;;5049225;28;20117;-66
2023/01/20 11:56:13;;;;;;;26.05;9.25;;;2.30;99.90;;;;;;5042788;28;20262;-66
2023/01/20 11:58:55;;;;;;;21.65;9.38;;;2.40;99.90;;;;;;5041377;28;20519;-66
2023/01/20 12:01:22;;;;;;;23.50;9.40;;;2.40;99.90;;;;;;5044515;28;20415;-66
2023/01/20 12:03:57;;;;;;;29.90;9.95;;;2.40;99.90;;;;;;5047007;28;20091;-67
2023/01/20 12:06:35;;;;;;;23.25;9.00;;;2.40;99.90;;;;;;5053643;28;20037;-66
2023/01/20 12:09:11;;;;;;;27.00;10.18;;;2.40;99.90;;;;;;5049536;28;20056;-66
2023/01/20 12:11:48;;;;;;;23.70;9.80;;;2.40;99.90;;;;;;5041708;28;20224;-66
2023/01/20 12:14:21;;;;;;;26.40;9.52;;;2.40;99.90;;;;;;5044263;28;20530;-66
2023/01/20 12:16:58;;;;;;;29.27;10.63;;;2.30;99.90;;;;;;5043297;28;20447;-66
2023/01/20 12:19:50;;;;;;;21.77;8.90;;;2.30;99.90;;;;;;5042883;28;20029;-66
2023/01/20 12:22:23;;;;;;;24.75;10.00;;;2.40;99.90;;;;;;5038095;28;20502;-67
2023/01/20 12:25:18;;;;;;;22.00;8.82;;;2.30;99.90;;;;;;5042279;28;20091;-67
2023/01/20 12:28:03;;;;;;;23.17;8.77;;;2.40;99.90;;;;;;5030972;28;20045;-66
2023/01/20 12:30:45;;;;;;;24.58;9.07;;;2.40;99.90;;;;;;5044509;28;20041;-67
2023/01/20 12:33:30;;;;;;;23.52;8.02;;;2.40;99.90;;;;;;5045798;28;20117;-66
2023/01/20 12:36:07;;;;;;;23.10;8.52;;;2.40;99.90;;;;;;5040676;28;20120;-66
2023/01/20 12:38:45;;;;;;;21.55;7.72;;;2.40;99.90;;;;;;5045429;28;20116;-66
2023/01/20 12:41:37;;;;;;;24.17;8.55;;;2.50;99.90;;;;;;5024464;28;20067;-66
2023/01/20 12:44:03;;;;;;;23.98;9.05;;;2.50;99.90;;;;;;5006132;28;20288;-66
2023/01/20 12:46:38;;;;;;;22.63;8.60;;;2.50;99.90;;;;;;5039816;28;20076;-66
2023/01/20 12:49:17;;;;;;;21.98;8.70;;;2.50;99.90;;;;;;5037890;28;20049;-66
2023/01/20 12:52:04;;;;;;;21.85;9.02;;;2.50;99.90;;;;;;5020185;28;20045;-66
2023/01/20 12:54:39;;;;;;;20.92;8.93;;;2.50;99.90;;;;;;5034531;28;20048;-66
2023/01/20 12:57:18;;;;;;;23.50;8.60;;;2.50;99.90;;;;;;5053978;22;20083;-69
2023/01/20 12:59:59;;;;;;;25.70;7.43;;;2.50;99.90;;;;;;5038280;28;20308;-69
2023/01/20 13:03:15;;;;;;;26.98;8.68;;;2.50;99.90;;;;;;5038278;28;20045;-69
2023/01/20 13:06:02;;;;;;;21.85;8.20;;;2.50;99.90;;;;;;5021628;28;20418;-69
2023/01/20 13:08:37;;;;;;;20.00;8.30;;;2.50;99.90;;;;;;5038952;28;20045;-70
2023/01/20 13:11:28;;;;;;;23.33;9.32;;;2.50;99.90;;;;;;5041575;28;20037;-69
2023/01/20 13:14:14;;;;;;;23.75;9.05;;;2.50;99.90;;;;;;5041974;28;20037;-69
2023/01/20 13:16:42;;;;;;;26.67;8.98;;;2.50;99.90;;;;;;5043945;28;20464;-69
2023/01/20 13:19:37;;;;;;;21.98;9.00;;;2.50;99.90;;;;;;5038596;28;20116;-69
2023/01/20 13:22:14;;;;;;;22.27;8.90;;;2.50;99.90;;;;;;5042448;28;20041;-69
2023/01/20 13:24:44;;;;;;;23.13;9.07;;;2.50;99.90;;;;;;5042744;28;20072;-69
2023/01/20 13:27:12;;;;;;;22.75;9.20;;;2.50;99.90;;;;;;5040080;28;20047;-69
2023/01/20 13:29:50;;;;;;;26.85;10.23;;;2.50;99.90;;;;;;5044613;28;20052;-69
2023/01/20 13:32:35;;;;;;;27.15;9.10;;;2.50;99.90;;;;;;5039762;28;20044;-69
2023/01/20 13:35:14;;;;;;;24.73;9.77;;;2.50;99.90;;;;;;5043710;28;20055;-69